Torres Canon, Colorado
Current Conditions -  °F | °C
As of 7:52 AM on Tuesday 21 Oct 2014 (Local Time) from KVTP Reporting Station
Haze Haze  
Wind Chill: 29°   Ceiling: 100
Heat Index: 36°   Visibility: 0.75mi
Dew Point: 36°   Wind: 9mph
Humidity: 100%   Direction: 190°S
Pressure: 30.31"   Gusts: 18mph
Location:  37.1566°N, 104.956°W
Report Text: KVTP 211352Z AUTO 19008G16KT 140V320 3/4SM BR OVC001 02/02 A3031 RMK AO2
Loading
Personal Weather Stations






























Interactive Weather Map
Tropical Storm Tracking
New forecast layout! Learn more

10-Day Weather Forecast

Advertisements
Track Severe Weather on mobile